sensor_id;sensor_type;location;lat;lon;timestamp;P1;durP1;ratioP1;P2;durP2;ratioP2
21392;SDS011;10857;52.228;21.026;2023-07-29T00:00:46;10.00;;;8.70;;
21392;SDS011;10857;52.228;21.026;2023-07-29T00:03:13;10.98;;;8.45;;
21392;SDS011;10857;52.228;21.026;2023-07-29T00:05:40;12.63;;;9.73;;
21392;SDS011;10857;52.228;21.026;2023-07-29T00:08:07;14.82;;;9.27;;
21392;SDS011;10857;52.228;21.026;2023-07-29T00:10:37;13.48;;;9.48;;
21392;SDS011;10857;52.228;21.026;2023-07-29T00:13:04;11.25;;;9.55;;
21392;SDS011;10857;52.228;21.026;2023-07-29T00:15:32;13.02;;;9.70;;
21392;SDS011;10857;52.228;21.026;2023-07-29T00:17:59;12.60;;;9.48;;
21392;SDS011;10857;52.228;21.026;2023-07-29T00:20:26;13.65;;;10.55;;
21392;SDS011;10857;52.228;21.026;2023-07-29T00:22:53;13.90;;;10.43;;
21392;SDS011;10857;52.228;21.026;2023-07-29T00:25:21;14.85;;;10.05;;
21392;SDS011;10857;52.228;21.026;2023-07-29T00:27:48;15.43;;;11.18;;
21392;SDS011;10857;52.228;21.026;2023-07-29T00:30:15;14.20;;;12.23;;
21392;SDS011;10857;52.228;21.026;2023-07-29T00:32:43;14.80;;;12.73;;
21392;SDS011;10857;52.228;21.026;2023-07-29T00:35:11;18.42;;;13.13;;
21392;SDS011;10857;52.228;21.026;2023-07-29T00:37:38;15.05;;;12.95;;
21392;SDS011;10857;52.228;21.026;2023-07-29T00:40:11;18.98;;;14.85;;
21392;SDS011;10857;52.228;21.026;2023-07-29T00:42:42;18.85;;;15.27;;
21392;SDS011;10857;52.228;21.026;2023-07-29T00:45:09;18.55;;;15.38;;
21392;SDS011;10857;52.228;21.026;2023-07-29T00:47:37;20.52;;;15.52;;
21392;SDS011;10857;52.228;21.026;2023-07-29T00:50:06;21.02;;;15.88;;
21392;SDS011;10857;52.228;21.026;2023-07-29T00:52:33;21.83;;;16.67;;
21392;SDS011;10857;52.228;21.026;2023-07-29T00:55:00;20.05;;;16.98;;
21392;SDS011;10857;52.228;21.026;2023-07-29T00:57:29;17.80;;;15.52;;
21392;SDS011;10857;52.228;21.026;2023-07-29T00:59:56;21.20;;;17.00;;
21392;SDS011;10857;52.228;21.026;2023-07-29T01:02:24;21.70;;;17.27;;
21392;SDS011;10857;52.228;21.026;2023-07-29T01:04:56;22.92;;;18.13;;
21392;SDS011;10857;52.228;21.026;2023-07-29T01:10:40;21.13;;;16.83;;
21392;SDS011;10857;52.228;21.026;2023-07-29T01:13:28;20.13;;;17.20;;
21392;SDS011;10857;52.228;21.026;2023-07-29T01:16:24;21.83;;;17.85;;
21392;SDS011;10857;52.228;21.026;2023-07-29T01:19:04;20.02;;;16.80;;
21392;SDS011;10857;52.228;21.026;2023-07-29T01:21:36;21.17;;;17.35;;
21392;SDS011;10857;52.228;21.026;2023-07-29T01:24:06;26.05;;;17.77;;
21392;SDS011;10857;52.228;21.026;2023-07-29T01:26:33;23.08;;;18.20;;
21392;SDS011;10857;52.228;21.026;2023-07-29T01:29:02;22.50;;;18.00;;
21392;SDS011;10857;52.228;21.026;2023-07-29T01:31:33;23.10;;;18.75;;
21392;SDS011;10857;52.228;21.026;2023-07-29T01:34:09;24.23;;;18.90;;
21392;SDS011;10857;52.228;21.026;2023-07-29T01:36:48;20.98;;;16.98;;
21392;SDS011;10857;52.228;21.026;2023-07-29T01:39:19;21.33;;;16.80;;
21392;SDS011;10857;52.228;21.026;2023-07-29T01:41:52;25.45;;;18.40;;
21392;SDS011;10857;52.228;21.026;2023-07-29T01:44:22;22.25;;;18.30;;
21392;SDS011;10857;52.228;21.026;2023-07-29T01:46:49;22.92;;;18.90;;
21392;SDS011;10857;52.228;21.026;2023-07-29T01:49:16;27.35;;;19.50;;
21392;SDS011;10857;52.228;21.026;2023-07-29T01:51:44;25.48;;;18.23;;
21392;SDS011;10857;52.228;21.026;2023-07-29T01:54:11;22.38;;;17.83;;
21392;SDS011;10857;52.228;21.026;2023-07-29T01:56:46;22.38;;;17.05;;
21392;SDS011;10857;52.228;21.026;2023-07-29T01:59:14;20.30;;;16.50;;
21392;SDS011;10857;52.228;21.026;2023-07-29T02:01:44;20.67;;;16.25;;
21392;SDS011;10857;52.228;21.026;2023-07-29T02:04:15;23.02;;;16.45;;
21392;SDS011;10857;52.228;21.026;2023-07-29T02:06:44;21.58;;;16.02;;
21392;SDS011;10857;52.228;21.026;2023-07-29T02:09:12;20.38;;;15.57;;
21392;SDS011;10857;52.228;21.026;2023-07-29T02:11:39;20.13;;;15.60;;
21392;SDS011;10857;52.228;21.026;2023-07-29T02:14:06;19.95;;;15.73;;
21392;SDS011;10857;52.228;21.026;2023-07-29T02:16:33;19.70;;;15.70;;
21392;SDS011;10857;52.228;21.026;2023-07-29T02:19:02;20.13;;;15.52;;
21392;SDS011;10857;52.228;21.026;2023-07-29T02:21:29;20.15;;;14.95;;
21392;SDS011;10857;52.228;21.026;2023-07-29T02:23:56;17.17;;;14.68;;
21392;SDS011;10857;52.228;21.026;2023-07-29T02:26:23;19.27;;;13.60;;
21392;SDS011;10857;52.228;21.026;2023-07-29T02:28:50;17.48;;;13.95;;
21392;SDS011;10857;52.228;21.026;2023-07-29T02:31:24;18.13;;;13.65;;
21392;SDS011;10857;52.228;21.026;2023-07-29T02:33:53;17.67;;;13.55;;
21392;SDS011;10857;52.228;21.026;2023-07-29T02:36:23;15.32;;;12.40;;
21392;SDS011;10857;52.228;21.026;2023-07-29T02:38:56;16.90;;;13.30;;
21392;SDS011;10857;52.228;21.026;2023-07-29T02:41:24;17.10;;;12.93;;
21392;SDS011;10857;52.228;21.026;2023-07-29T02:43:51;17.73;;;12.80;;
21392;SDS011;10857;52.228;21.026;2023-07-29T02:46:18;16.33;;;13.40;;
21392;SDS011;10857;52.228;21.026;2023-07-29T02:48:47;16.70;;;12.95;;
21392;SDS011;10857;52.228;21.026;2023-07-29T02:51:17;17.27;;;12.32;;
21392;SDS011;10857;52.228;21.026;2023-07-29T02:53:45;15.15;;;12.75;;
21392;SDS011;10857;52.228;21.026;2023-07-29T02:56:12;17.08;;;12.75;;
21392;SDS011;10857;52.228;21.026;2023-07-29T02:58:39;17.45;;;13.07;;
21392;SDS011;10857;52.228;21.026;2023-07-29T03:01:07;16.55;;;13.13;;
21392;SDS011;10857;52.228;21.026;2023-07-29T03:03:34;16.65;;;13.32;;
21392;SDS011;10857;52.228;21.026;2023-07-29T03:06:05;18.05;;;13.75;;
21392;SDS011;10857;52.228;21.026;2023-07-29T03:08:33;17.75;;;12.80;;
21392;SDS011;10857;52.228;21.026;2023-07-29T03:11:08;13.80;;;12.20;;
21392;SDS011;10857;52.228;21.026;2023-07-29T03:13:36;16.92;;;12.50;;
21392;SDS011;10857;52.228;21.026;2023-07-29T03:16:08;15.98;;;12.60;;
21392;SDS011;10857;52.228;21.026;2023-07-29T03:18:45;13.45;;;11.88;;
21392;SDS011;10857;52.228;21.026;2023-07-29T03:21:12;15.50;;;12.45;;
21392;SDS011;10857;52.228;21.026;2023-07-29T03:23:39;17.13;;;12.00;;
21392;SDS011;10857;52.228;21.026;2023-07-29T03:26:06;12.43;;;11.13;;
21392;SDS011;10857;52.228;21.026;2023-07-29T03:28:40;13.98;;;11.52;;
21392;SDS011;10857;52.228;21.026;2023-07-29T03:31:12;14.05;;;11.50;;
21392;SDS011;10857;52.228;21.026;2023-07-29T03:33:39;15.90;;;12.63;;
21392;SDS011;10857;52.228;21.026;2023-07-29T03:36:06;15.57;;;12.13;;
21392;SDS011;10857;52.228;21.026;2023-07-29T03:38:33;16.67;;;13.20;;
21392;SDS011;10857;52.228;21.026;2023-07-29T03:41:02;16.95;;;12.70;;
21392;SDS011;10857;52.228;21.026;2023-07-29T03:43:30;19.73;;;14.88;;
21392;SDS011;10857;52.228;21.026;2023-07-29T03:46:04;20.38;;;15.15;;
21392;SDS011;10857;52.228;21.026;2023-07-29T03:48:36;18.63;;;14.80;;
21392;SDS011;10857;52.228;21.026;2023-07-29T03:51:07;22.88;;;16.15;;
21392;SDS011;10857;52.228;21.026;2023-07-29T03:53:36;19.48;;;14.52;;
21392;SDS011;10857;52.228;21.026;2023-07-29T03:56:04;20.35;;;15.52;;
21392;SDS011;10857;52.228;21.026;2023-07-29T03:58:33;23.58;;;15.95;;
21392;SDS011;10857;52.228;21.026;2023-07-29T04:01:02;21.38;;;15.25;;
21392;SDS011;10857;52.228;21.026;2023-07-29T04:03:33;19.42;;;14.13;;
21392;SDS011;10857;52.228;21.026;2023-07-29T04:06:02;15.85;;;13.60;;
21392;SDS011;10857;52.228;21.026;2023-07-29T04:08:30;18.25;;;14.32;;
21392;SDS011;10857;52.228;21.026;2023-07-29T04:10:57;16.55;;;13.48;;
21392;SDS011;10857;52.228;21.026;2023-07-29T04:13:25;16.23;;;13.10;;
21392;SDS011;10857;52.228;21.026;2023-07-29T04:15:54;16.67;;;12.82;;
21392;SDS011;10857;52.228;21.026;2023-07-29T04:18:23;13.20;;;11.80;;
21392;SDS011;10857;52.228;21.026;2023-07-29T04:20:50;15.80;;;12.70;;
21392;SDS011;10857;52.228;21.026;2023-07-29T04:23:18;14.43;;;11.48;;
21392;SDS011;10857;52.228;21.026;2023-07-29T04:25:46;14.93;;;12.25;;
21392;SDS011;10857;52.228;21.026;2023-07-29T04:28:14;14.15;;;12.45;;
21392;SDS011;10857;52.228;21.026;2023-07-29T04:30:44;15.50;;;12.63;;
21392;SDS011;10857;52.228;21.026;2023-07-29T04:33:16;14.48;;;12.60;;
21392;SDS011;10857;52.228;21.026;2023-07-29T04:35:43;16.30;;;12.57;;
21392;SDS011;10857;52.228;21.026;2023-07-29T04:38:13;15.70;;;11.75;;
21392;SDS011;10857;52.228;21.026;2023-07-29T04:40:42;16.17;;;12.07;;
21392;SDS011;10857;52.228;21.026;2023-07-29T04:43:09;14.80;;;11.88;;
21392;SDS011;10857;52.228;21.026;2023-07-29T04:45:41;15.60;;;13.10;;
21392;SDS011;10857;52.228;21.026;2023-07-29T04:48:11;15.73;;;12.52;;
21392;SDS011;10857;52.228;21.026;2023-07-29T04:50:39;16.60;;;14.18;;
21392;SDS011;10857;52.228;21.026;2023-07-29T04:53:26;15.95;;;13.27;;
21392;SDS011;10857;52.228;21.026;2023-07-29T04:55:53;15.27;;;13.65;;
21392;SDS011;10857;52.228;21.026;2023-07-29T04:58:21;16.13;;;14.25;;
21392;SDS011;10857;52.228;21.026;2023-07-29T05:00:49;17.10;;;13.63;;
21392;SDS011;10857;52.228;21.026;2023-07-29T05:03:18;18.02;;;13.63;;
21392;SDS011;10857;52.228;21.026;2023-07-29T05:05:47;17.08;;;13.45;;
21392;SDS011;10857;52.228;21.026;2023-07-29T05:08:17;17.20;;;14.25;;
21392;SDS011;10857;52.228;21.026;2023-07-29T05:10:48;19.98;;;14.95;;
21392;SDS011;10857;52.228;21.026;2023-07-29T05:13:17;17.67;;;15.40;;
21392;SDS011;10857;52.228;21.026;2023-07-29T05:15:49;18.80;;;15.70;;
21392;SDS011;10857;52.228;21.026;2023-07-29T05:18:26;18.83;;;15.77;;
21392;SDS011;10857;52.228;21.026;2023-07-29T05:20:53;22.23;;;18.55;;
21392;SDS011;10857;52.228;21.026;2023-07-29T05:23:22;20.02;;;17.35;;
21392;SDS011;10857;52.228;21.026;2023-07-29T05:25:49;22.30;;;18.55;;
21392;SDS011;10857;52.228;21.026;2023-07-29T05:28:17;21.90;;;18.63;;
21392;SDS011;10857;52.228;21.026;2023-07-29T05:30:46;22.35;;;18.17;;
21392;SDS011;10857;52.228;21.026;2023-07-29T05:33:20;21.17;;;16.35;;
21392;SDS011;10857;52.228;21.026;2023-07-29T05:36:06;19.88;;;16.77;;
21392;SDS011;10857;52.228;21.026;2023-07-29T05:38:42;16.80;;;15.10;;
21392;SDS011;10857;52.228;21.026;2023-07-29T05:41:18;18.02;;;15.43;;
21392;SDS011;10857;52.228;21.026;2023-07-29T05:43:58;17.63;;;15.60;;
21392;SDS011;10857;52.228;21.026;2023-07-29T05:46:33;18.80;;;16.83;;
21392;SDS011;10857;52.228;21.026;2023-07-29T05:49:04;19.42;;;16.60;;
21392;SDS011;10857;52.228;21.026;2023-07-29T05:51:37;18.75;;;16.42;;
21392;SDS011;10857;52.228;21.026;2023-07-29T05:54:07;19.20;;;17.08;;
21392;SDS011;10857;52.228;21.026;2023-07-29T05:56:38;19.85;;;17.58;;
21392;SDS011;10857;52.228;21.026;2023-07-29T05:59:23;21.38;;;18.58;;
21392;SDS011;10857;52.228;21.026;2023-07-29T06:01:54;20.42;;;17.75;;
21392;SDS011;10857;52.228;21.026;2023-07-29T06:04:31;22.08;;;19.05;;
21392;SDS011;10857;52.228;21.026;2023-07-29T06:07:02;21.95;;;18.35;;
21392;SDS011;10857;52.228;21.026;2023-07-29T06:09:35;19.58;;;17.48;;
21392;SDS011;10857;52.228;21.026;2023-07-29T06:12:08;22.23;;;18.02;;
21392;SDS011;10857;52.228;21.026;2023-07-29T06:14:39;19.92;;;17.55;;
21392;SDS011;10857;52.228;21.026;2023-07-29T06:17:16;20.05;;;17.92;;
21392;SDS011;10857;52.228;21.026;2023-07-29T06:19:45;20.23;;;17.52;;
21392;SDS011;10857;52.228;21.026;2023-07-29T06:22:15;21.65;;;18.77;;
21392;SDS011;10857;52.228;21.026;2023-07-29T06:24:45;20.75;;;18.40;;
21392;SDS011;10857;52.228;21.026;2023-07-29T06:27:12;20.70;;;18.50;;
21392;SDS011;10857;52.228;21.026;2023-07-29T06:29:39;21.25;;;18.98;;
21392;SDS011;10857;52.228;21.026;2023-07-29T06:32:10;21.00;;;18.65;;
21392;SDS011;10857;52.228;21.026;2023-07-29T06:34:39;21.08;;;18.80;;
21392;SDS011;10857;52.228;21.026;2023-07-29T06:37:09;18.80;;;16.63;;
21392;SDS011;10857;52.228;21.026;2023-07-29T06:39:37;19.70;;;17.60;;
21392;SDS011;10857;52.228;21.026;2023-07-29T06:42:04;21.65;;;16.35;;
21392;SDS011;10857;52.228;21.026;2023-07-29T06:44:34;21.42;;;16.48;;
21392;SDS011;10857;52.228;21.026;2023-07-29T06:47:02;18.67;;;16.58;;
21392;SDS011;10857;52.228;21.026;2023-07-29T06:49:30;17.80;;;15.73;;
21392;SDS011;10857;52.228;21.026;2023-07-29T06:51:57;16.73;;;15.07;;
21392;SDS011;10857;52.228;21.026;2023-07-29T06:54:24;20.48;;;16.80;;
21392;SDS011;10857;52.228;21.026;2023-07-29T06:56:54;19.92;;;17.70;;
21392;SDS011;10857;52.228;21.026;2023-07-29T06:59:22;17.27;;;15.48;;
21392;SDS011;10857;52.228;21.026;2023-07-29T07:01:55;18.55;;;16.45;;
21392;SDS011;10857;52.228;21.026;2023-07-29T07:04:22;20.10;;;17.10;;
21392;SDS011;10857;52.228;21.026;2023-07-29T07:07:06;20.88;;;18.77;;
21392;SDS011;10857;52.228;21.026;2023-07-29T07:09:36;20.30;;;18.20;;
21392;SDS011;10857;52.228;21.026;2023-07-29T07:12:05;21.73;;;18.80;;
21392;SDS011;10857;52.228;21.026;2023-07-29T07:14:38;20.10;;;18.00;;
21392;SDS011;10857;52.228;21.026;2023-07-29T07:17:20;20.70;;;16.92;;
21392;SDS011;10857;52.228;21.026;2023-07-29T07:19:54;17.67;;;15.77;;
21392;SDS011;10857;52.228;21.026;2023-07-29T07:22:23;18.00;;;16.20;;
21392;SDS011;10857;52.228;21.026;2023-07-29T07:24:51;18.63;;;16.35;;
21392;SDS011;10857;52.228;21.026;2023-07-29T07:27:20;18.23;;;15.75;;
21392;SDS011;10857;52.228;21.026;2023-07-29T07:29:49;17.23;;;15.43;;
21392;SDS011;10857;52.228;21.026;2023-07-29T07:32:19;16.40;;;14.52;;
21392;SDS011;10857;52.228;21.026;2023-07-29T07:34:52;16.13;;;13.70;;
21392;SDS011;10857;52.228;21.026;2023-07-29T07:37:20;17.67;;;15.77;;
21392;SDS011;10857;52.228;21.026;2023-07-29T07:39:49;17.45;;;15.30;;
21392;SDS011;10857;52.228;21.026;2023-07-29T07:42:16;17.75;;;14.75;;
21392;SDS011;10857;52.228;21.026;2023-07-29T07:44:43;15.77;;;14.18;;
21392;SDS011;10857;52.228;21.026;2023-07-29T07:47:11;15.35;;;13.68;;
21392;SDS011;10857;52.228;21.026;2023-07-29T07:49:39;16.45;;;12.75;;
21392;SDS011;10857;52.228;21.026;2023-07-29T07:52:11;15.45;;;12.57;;
21392;SDS011;10857;52.228;21.026;2023-07-29T07:54:41;17.58;;;15.05;;
21392;SDS011;10857;52.228;21.026;2023-07-29T07:57:17;18.08;;;13.15;;
21392;SDS011;10857;52.228;21.026;2023-07-29T07:59:47;13.95;;;12.55;;
21392;SDS011;10857;52.228;21.026;2023-07-29T08:02:14;14.57;;;13.07;;
21392;SDS011;10857;52.228;21.026;2023-07-29T08:04:42;13.80;;;12.32;;
21392;SDS011;10857;52.228;21.026;2023-07-29T08:07:10;14.63;;;13.13;;
21392;SDS011;10857;52.228;21.026;2023-07-29T08:09:38;12.90;;;11.60;;
21392;SDS011;10857;52.228;21.026;2023-07-29T08:12:09;12.93;;;11.63;;
21392;SDS011;10857;52.228;21.026;2023-07-29T08:14:49;11.95;;;10.10;;
21392;SDS011;10857;52.228;21.026;2023-07-29T08:17:16;12.93;;;10.32;;
21392;SDS011;10857;52.228;21.026;2023-07-29T08:19:46;10.55;;;9.35;;
21392;SDS011;10857;52.228;21.026;2023-07-29T08:22:19;9.70;;;8.13;;
21392;SDS011;10857;52.228;21.026;2023-07-29T08:24:49;9.48;;;8.57;;
21392;SDS011;10857;52.228;21.026;2023-07-29T08:27:33;9.35;;;8.02;;
21392;SDS011;10857;52.228;21.026;2023-07-29T08:30:04;8.70;;;7.70;;
21392;SDS011;10857;52.228;21.026;2023-07-29T08:32:48;7.88;;;7.00;;
21392;SDS011;10857;52.228;21.026;2023-07-29T08:35:17;9.60;;;6.85;;
21392;SDS011;10857;52.228;21.026;2023-07-29T08:37:46;7.60;;;6.47;;
21392;SDS011;10857;52.228;21.026;2023-07-29T08:40:13;7.18;;;6.47;;
21392;SDS011;10857;52.228;21.026;2023-07-29T08:42:40;6.78;;;6.07;;
21392;SDS011;10857;52.228;21.026;2023-07-29T08:45:12;7.50;;;6.47;;
21392;SDS011;10857;52.228;21.026;2023-07-29T08:47:46;7.20;;;6.07;;
21392;SDS011;10857;52.228;21.026;2023-07-29T08:50:16;7.32;;;5.75;;
21392;SDS011;10857;52.228;21.026;2023-07-29T08:52:44;7.20;;;5.35;;
21392;SDS011;10857;52.228;21.026;2023-07-29T08:55:15;12.63;;;5.47;;
21392;SDS011;10857;52.228;21.026;2023-07-29T08:57:50;6.97;;;5.70;;
21392;SDS011;10857;52.228;21.026;2023-07-29T09:00:18;9.52;;;5.13;;
21392;SDS011;10857;52.228;21.026;2023-07-29T09:02:47;6.05;;;5.47;;
21392;SDS011;10857;52.228;21.026;2023-07-29T09:05:14;5.65;;;5.07;;
21392;SDS011;10857;52.228;21.026;2023-07-29T09:07:41;6.05;;;5.35;;
21392;SDS011;10857;52.228;21.026;2023-07-29T09:10:11;6.13;;;4.65;;
21392;SDS011;10857;52.228;21.026;2023-07-29T09:12:40;7.45;;;5.00;;
21392;SDS011;10857;52.228;21.026;2023-07-29T09:15:07;5.00;;;4.50;;
21392;SDS011;10857;52.228;21.026;2023-07-29T09:17:34;5.20;;;4.70;;
21392;SDS011;10857;52.228;21.026;2023-07-29T09:20:02;5.10;;;4.60;;
21392;SDS011;10857;52.228;21.026;2023-07-29T09:22:29;4.70;;;4.30;;
21392;SDS011;10857;52.228;21.026;2023-07-29T09:25:07;5.07;;;4.35;;
21392;SDS011;10857;52.228;21.026;2023-07-29T09:27:35;5.57;;;3.90;;
21392;SDS011;10857;52.228;21.026;2023-07-29T09:30:06;13.85;;;4.70;;
21392;SDS011;10857;52.228;21.026;2023-07-29T09:32:42;6.13;;;4.00;;
21392;SDS011;10857;52.228;21.026;2023-07-29T09:35:10;4.57;;;3.72;;
21392;SDS011;10857;52.228;21.026;2023-07-29T09:37:40;3.85;;;3.55;;
21392;SDS011;10857;52.228;21.026;2023-07-29T09:40:13;4.45;;;3.63;;
21392;SDS011;10857;52.228;21.026;2023-07-29T09:42:47;3.90;;;3.60;;
21392;SDS011;10857;52.228;21.026;2023-07-29T09:45:35;14.43;;;4.80;;
21392;SDS011;10857;52.228;21.026;2023-07-29T09:48:06;6.68;;;3.75;;
21392;SDS011;10857;52.228;21.026;2023-07-29T09:50:38;3.88;;;3.42;;
21392;SDS011;10857;52.228;21.026;2023-07-29T09:53:09;3.97;;;3.67;;
21392;SDS011;10857;52.228;21.026;2023-07-29T09:55:38;3.45;;;3.10;;
21392;SDS011;10857;52.228;21.026;2023-07-29T09:58:08;6.10;;;3.50;;
21392;SDS011;10857;52.228;21.026;2023-07-29T10:00:36;3.22;;;2.88;;
21392;SDS011;10857;52.228;21.026;2023-07-29T10:03:05;6.07;;;3.20;;
21392;SDS011;10857;52.228;21.026;2023-07-29T10:05:34;4.47;;;2.80;;
21392;SDS011;10857;52.228;21.026;2023-07-29T10:08:02;4.32;;;3.15;;
21392;SDS011;10857;52.228;21.026;2023-07-29T10:10:30;4.03;;;3.20;;
21392;SDS011;10857;52.228;21.026;2023-07-29T10:12:57;3.45;;;3.15;;
21392;SDS011;10857;52.228;21.026;2023-07-29T10:15:25;4.57;;;4.00;;
21392;SDS011;10857;52.228;21.026;2023-07-29T10:17:54;3.53;;;3.22;;
21392;SDS011;10857;52.228;21.026;2023-07-29T10:20:22;8.18;;;3.50;;
21392;SDS011;10857;52.228;21.026;2023-07-29T10:22:49;3.63;;;3.20;;
21392;SDS011;10857;52.228;21.026;2023-07-29T10:25:22;4.07;;;3.30;;
21392;SDS011;10857;52.228;21.026;2023-07-29T10:28:00;3.60;;;3.30;;
21392;SDS011;10857;52.228;21.026;2023-07-29T10:30:31;6.88;;;3.40;;
21392;SDS011;10857;52.228;21.026;2023-07-29T10:33:01;7.47;;;3.70;;
21392;SDS011;10857;52.228;21.026;2023-07-29T10:35:31;3.50;;;3.20;;
21392;SDS011;10857;52.228;21.026;2023-07-29T10:38:00;3.78;;;3.42;;
21392;SDS011;10857;52.228;21.026;2023-07-29T10:40:45;3.63;;;3.33;;
21392;SDS011;10857;52.228;21.026;2023-07-29T10:43:32;12.57;;;3.97;;
21392;SDS011;10857;52.228;21.026;2023-07-29T10:46:19;6.55;;;3.30;;
21392;SDS011;10857;52.228;21.026;2023-07-29T10:53:52;3.78;;;3.08;;
21392;SDS011;10857;52.228;21.026;2023-07-29T10:56:29;3.53;;;3.22;;
21392;SDS011;10857;52.228;21.026;2023-07-29T11:01:42;3.55;;;3.25;;
21392;SDS011;10857;52.228;21.026;2023-07-29T11:09:54;6.00;;;3.63;;
21392;SDS011;10857;52.228;21.026;2023-07-29T11:17:59;3.20;;;3.00;;
21392;SDS011;10857;52.228;21.026;2023-07-29T11:20:31;3.42;;;3.10;;
21392;SDS011;10857;52.228;21.026;2023-07-29T11:23:00;3.03;;;2.83;;
21392;SDS011;10857;52.228;21.026;2023-07-29T11:25:29;3.25;;;2.80;;
21392;SDS011;10857;52.228;21.026;2023-07-29T11:27:58;3.42;;;3.13;;
21392;SDS011;10857;52.228;21.026;2023-07-29T11:30:32;3.50;;;3.20;;
21392;SDS011;10857;52.228;21.026;2023-07-29T11:33:00;4.18;;;3.30;;
21392;SDS011;10857;52.228;21.026;2023-07-29T11:35:27;6.00;;;2.80;;
21392;SDS011;10857;52.228;21.026;2023-07-29T11:37:54;4.45;;;2.90;;
21392;SDS011;10857;52.228;21.026;2023-07-29T11:40:24;3.70;;;3.20;;
21392;SDS011;10857;52.228;21.026;2023-07-29T11:42:52;3.40;;;3.10;;
21392;SDS011;10857;52.228;21.026;2023-07-29T11:45:20;4.35;;;3.22;;
21392;SDS011;10857;52.228;21.026;2023-07-29T11:48:01;4.15;;;3.20;;
21392;SDS011;10857;52.228;21.026;2023-07-29T11:50:28;3.40;;;3.08;;
21392;SDS011;10857;52.228;21.026;2023-07-29T11:52:55;3.13;;;2.85;;
21392;SDS011;10857;52.228;21.026;2023-07-29T11:55:22;4.28;;;3.15;;
21392;SDS011;10857;52.228;21.026;2023-07-29T11:57:51;3.42;;;3.13;;
21392;SDS011;10857;52.228;21.026;2023-07-29T12:00:18;3.10;;;2.80;;
21392;SDS011;10857;52.228;21.026;2023-07-29T12:02:48;4.85;;;3.30;;
21392;SDS011;10857;52.228;21.026;2023-07-29T12:05:16;3.35;;;3.05;;
21392;SDS011;10857;52.228;21.026;2023-07-29T12:07:45;3.30;;;3.00;;
21392;SDS011;10857;52.228;21.026;2023-07-29T12:10:12;3.40;;;3.10;;
21392;SDS011;10857;52.228;21.026;2023-07-29T12:12:45;4.53;;;3.20;;
21392;SDS011;10857;52.228;21.026;2023-07-29T12:15:22;3.38;;;3.08;;
21392;SDS011;10857;52.228;21.026;2023-07-29T12:17:52;3.50;;;3.20;;
21392;SDS011;10857;52.228;21.026;2023-07-29T12:20:25;3.40;;;3.10;;
21392;SDS011;10857;52.228;21.026;2023-07-29T12:22:56;3.70;;;3.22;;
21392;SDS011;10857;52.228;21.026;2023-07-29T12:25:25;3.30;;;3.00;;
21392;SDS011;10857;52.228;21.026;2023-07-29T12:27:52;4.00;;;2.90;;
21392;SDS011;10857;52.228;21.026;2023-07-29T12:30:20;3.10;;;2.90;;
21392;SDS011;10857;52.228;21.026;2023-07-29T12:32:48;3.50;;;3.20;;
21392;SDS011;10857;52.228;21.026;2023-07-29T12:35:15;4.35;;;3.35;;
21392;SDS011;10857;52.228;21.026;2023-07-29T12:37:44;3.97;;;3.25;;
21392;SDS011;10857;52.228;21.026;2023-07-29T12:40:21;3.85;;;3.33;;
21392;SDS011;10857;52.228;21.026;2023-07-29T12:42:52;3.83;;;3.53;;
21392;SDS011;10857;52.228;21.026;2023-07-29T12:45:19;4.53;;;3.20;;
21392;SDS011;10857;52.228;21.026;2023-07-29T12:47:50;3.83;;;3.53;;
21392;SDS011;10857;52.228;21.026;2023-07-29T12:50:17;4.53;;;3.90;;
21392;SDS011;10857;52.228;21.026;2023-07-29T12:52:44;3.10;;;2.90;;
21392;SDS011;10857;52.228;21.026;2023-07-29T12:55:11;4.40;;;3.22;;
21392;SDS011;10857;52.228;21.026;2023-07-29T12:57:41;4.03;;;3.28;;
21392;SDS011;10857;52.228;21.026;2023-07-29T13:00:10;5.85;;;3.20;;
21392;SDS011;10857;52.228;21.026;2023-07-29T13:02:37;3.38;;;3.08;;
21392;SDS011;10857;52.228;21.026;2023-07-29T13:05:05;4.13;;;3.53;;
21392;SDS011;10857;52.228;21.026;2023-07-29T13:07:33;5.78;;;4.10;;
21392;SDS011;10857;52.228;21.026;2023-07-29T13:10:00;6.47;;;3.20;;
21392;SDS011;10857;52.228;21.026;2023-07-29T13:12:27;3.95;;;3.65;;
21392;SDS011;10857;52.228;21.026;2023-07-29T13:14:54;3.70;;;3.40;;
21392;SDS011;10857;52.228;21.026;2023-07-29T13:17:21;3.53;;;3.15;;
21392;SDS011;10857;52.228;21.026;2023-07-29T13:19:49;4.70;;;3.20;;
21392;SDS011;10857;52.228;21.026;2023-07-29T13:22:17;3.78;;;3.38;;
21392;SDS011;10857;52.228;21.026;2023-07-29T13:24:44;3.38;;;3.10;;
21392;SDS011;10857;52.228;21.026;2023-07-29T13:27:11;4.32;;;3.17;;
21392;SDS011;10857;52.228;21.026;2023-07-29T13:29:39;3.90;;;3.50;;
21392;SDS011;10857;52.228;21.026;2023-07-29T13:32:06;3.80;;;3.50;;
21392;SDS011;10857;52.228;21.026;2023-07-29T13:34:34;3.47;;;3.17;;
21392;SDS011;10857;52.228;21.026;2023-07-29T13:37:01;3.40;;;3.10;;
21392;SDS011;10857;52.228;21.026;2023-07-29T13:39:28;3.75;;;3.40;;
21392;SDS011;10857;52.228;21.026;2023-07-29T13:41:55;3.53;;;3.22;;
21392;SDS011;10857;52.228;21.026;2023-07-29T13:44:22;4.55;;;3.50;;
21392;SDS011;10857;52.228;21.026;2023-07-29T13:46:49;3.83;;;3.38;;
21392;SDS011;10857;52.228;21.026;2023-07-29T13:49:16;5.95;;;3.45;;
21392;SDS011;10857;52.228;21.026;2023-07-29T13:51:43;4.40;;;3.00;;
21392;SDS011;10857;52.228;21.026;2023-07-29T13:54:10;3.58;;;3.28;;
21392;SDS011;10857;52.228;21.026;2023-07-29T13:56:37;3.58;;;3.05;;
21392;SDS011;10857;52.228;21.026;2023-07-29T13:59:05;4.35;;;3.45;;
21392;SDS011;10857;52.228;21.026;2023-07-29T14:01:32;3.10;;;2.90;;
21392;SDS011;10857;52.228;21.026;2023-07-29T14:03:59;4.90;;;4.50;;
21392;SDS011;10857;52.228;21.026;2023-07-29T14:06:25;3.40;;;3.10;;
21392;SDS011;10857;52.228;21.026;2023-07-29T14:09:10;3.80;;;3.08;;
21392;SDS011;10857;52.228;21.026;2023-07-29T14:11:36;4.03;;;3.67;;
21392;SDS011;10857;52.228;21.026;2023-07-29T14:14:04;4.78;;;4.38;;
21392;SDS011;10857;52.228;21.026;2023-07-29T14:16:31;4.40;;;3.10;;
21392;SDS011;10857;52.228;21.026;2023-07-29T14:18:58;4.80;;;3.20;;
21392;SDS011;10857;52.228;21.026;2023-07-29T14:21:25;4.30;;;3.50;;
21392;SDS011;10857;52.228;21.026;2023-07-29T14:23:52;3.38;;;3.08;;
21392;SDS011;10857;52.228;21.026;2023-07-29T14:26:19;3.92;;;3.53;;
21392;SDS011;10857;52.228;21.026;2023-07-29T14:28:47;4.25;;;3.38;;
21392;SDS011;10857;52.228;21.026;2023-07-29T14:31:23;3.80;;;3.20;;
21392;SDS011;10857;52.228;21.026;2023-07-29T14:33:50;3.78;;;3.20;;
21392;SDS011;10857;52.228;21.026;2023-07-29T14:36:17;4.78;;;3.25;;
21392;SDS011;10857;52.228;21.026;2023-07-29T14:38:44;3.50;;;3.20;;
21392;SDS011;10857;52.228;21.026;2023-07-29T14:41:14;3.70;;;3.40;;
21392;SDS011;10857;52.228;21.026;2023-07-29T14:43:41;4.72;;;3.28;;
21392;SDS011;10857;52.228;21.026;2023-07-29T14:46:08;3.53;;;3.20;;
21392;SDS011;10857;52.228;21.026;2023-07-29T14:48:35;5.55;;;3.33;;
21392;SDS011;10857;52.228;21.026;2023-07-29T14:51:03;4.82;;;3.47;;
21392;SDS011;10857;52.228;21.026;2023-07-29T14:53:31;3.65;;;3.35;;
21392;SDS011;10857;52.228;21.026;2023-07-29T14:56:06;3.88;;;3.20;;
21392;SDS011;10857;52.228;21.026;2023-07-29T14:58:49;4.57;;;3.13;;